Time;durP1;ratioP1;P1;durP2;ratioP2;P2;SDS_P1;SDS_P2;PMS_P1;PMS_P2;Temp;Humidity;BMP_temperature;BMP_pressure;BME280_temperature;BME280_humidity;BME280_pressure;Samples;Min_cycle;Max_cycle;Signal;HPM_P1;HPM_P2
2022/07/28 00:00:07;;;;;;;2.70;1.63;;;18.40;68.90;;;;;;5039155;28;21371;-51
2022/07/28 00:02:33;;;;;;;2.10;1.60;;;18.30;68.70;;;;;;5039751;28;20474;-49
2022/07/28 00:05:00;;;;;;;4.67;2.03;;;18.30;69.50;;;;;;5043287;28;20482;-50
2022/07/28 00:07:27;;;;;;;5.40;1.50;;;18.20;69.50;;;;;;5037471;28;20813;-50
2022/07/28 00:09:53;;;;;;;3.47;1.60;;;18.20;69.60;;;;;;5029177;28;20475;-52
2022/07/28 00:12:21;;;;;;;2.53;1.90;;;18.10;68.10;;;;;;5044733;28;20475;-50
2022/07/28 00:14:48;;;;;;;3.00;1.80;;;18.10;68.70;;;;;;5037265;28;20490;-50
2022/07/28 00:17:15;;;;;;;5.57;2.30;;;18.10;68.90;;;;;;5038931;28;20545;-50
2022/07/28 00:19:41;;;;;;;3.60;1.63;;;18.00;68.90;;;;;;5042101;28;20472;-50
2022/07/28 00:22:08;;;;;;;5.33;1.60;;;18.00;69.50;;;;;;5038943;28;20563;-50
2022/07/28 00:24:36;;;;;;;2.87;1.80;;;17.90;69.60;;;;;;5040220;28;20475;-50
2022/07/28 00:27:03;;;;;;;4.83;2.07;;;17.80;70.00;;;;;;5029110;28;20562;-50
2022/07/28 00:29:31;;;;;;;2.90;2.20;;;17.70;70.50;;;;;;5039403;28;20471;-50
2022/07/28 00:31:58;;;;;;;2.10;1.60;;;17.70;71.10;;;;;;5040644;28;20540;-49
2022/07/28 00:34:25;;;;;;;3.80;2.50;;;17.60;71.40;;;;;;5036806;28;20480;-49
2022/07/28 00:36:52;;;;;;;2.20;2.00;;;17.60;71.10;;;;;;5039897;28;20750;-50
2022/07/28 00:39:18;;;;;;;2.43;2.13;;;17.50;71.60;;;;;;5035455;28;20472;-50
2022/07/28 00:41:45;;;;;;;2.30;1.90;;;17.40;71.20;;;;;;5036877;28;20471;-50
2022/07/28 00:44:12;;;;;;;2.83;2.00;;;17.40;70.90;;;;;;5039876;28;20484;-49
2022/07/28 00:46:40;;;;;;;3.63;1.90;;;17.30;70.70;;;;;;5039883;28;20521;-49
2022/07/28 00:49:07;;;;;;;2.60;1.63;;;17.30;70.70;;;;;;5036888;28;20534;-49
2022/07/28 00:51:34;;;;;;;3.03;2.10;;;17.30;71.40;;;;;;5038559;28;20484;-49
2022/07/28 00:54:01;;;;;;;2.90;1.63;;;17.20;70.50;;;;;;5039318;28;20799;-49
2022/07/28 00:56:28;;;;;;;7.40;2.60;;;17.10;70.60;;;;;;5038307;28;20533;-50
2022/07/28 00:58:54;;;;;;;4.30;2.33;;;17.10;71.60;;;;;;5039564;28;20997;-49
2022/07/28 01:01:22;;;;;;;2.83;2.63;;;17.10;71.10;;;;;;5029066;28;20491;-50
2022/07/28 01:03:53;;;;;;;5.30;1.63;;;17.10;70.00;;;;;;5051581;28;20573;-50
2022/07/28 01:06:37;;;;;;;6.80;2.97;;;17.10;69.70;;;;;;5037455;28;20492;-49
2022/07/28 01:09:10;;;;;;;2.83;2.30;;;17.20;69.80;;;;;;5038067;28;20484;-49
2022/07/28 01:11:47;;;;;;;2.57;2.00;;;17.20;69.30;;;;;;5027711;28;20476;-49
2022/07/28 01:14:21;;;;;;;6.53;2.47;;;17.30;69.20;;;;;;5027444;28;20475;-49
2022/07/28 01:16:53;;;;;;;2.10;1.80;;;17.30;69.00;;;;;;5040867;28;20506;-49
2022/07/28 01:19:36;;;;;;;2.83;2.53;;;17.30;68.30;;;;;;5039816;28;20780;-48
2022/07/28 01:22:04;;;;;;;4.20;2.90;;;17.40;68.30;;;;;;5040280;28;20533;-48
2022/07/28 01:24:39;;;;;;;2.27;2.07;;;17.40;68.30;;;;;;5036695;28;20475;-48
2022/07/28 01:27:09;;;;;;;3.93;1.70;;;17.40;67.90;;;;;;5038663;28;20525;-49
2022/07/28 01:29:57;;;;;;;4.53;2.20;;;17.40;68.00;;;;;;5039305;28;20472;-49
2022/07/28 01:32:28;;;;;;;4.30;1.70;;;17.40;67.90;;;;;;5037887;28;21062;-49
2022/07/28 01:34:59;;;;;;;3.70;1.90;;;17.50;67.90;;;;;;5034609;28;20474;-48
2022/07/28 01:37:29;;;;;;;3.70;2.07;;;17.50;67.60;;;;;;5037711;28;20484;-49
2022/07/28 01:40:00;;;;;;;3.77;2.40;;;17.50;67.30;;;;;;5035228;28;20728;-49
2022/07/28 01:42:33;;;;;;;4.10;2.53;;;17.50;67.20;;;;;;5037480;28;21064;-48
2022/07/28 01:45:01;;;;;;;3.33;1.60;;;17.60;67.50;;;;;;5036992;28;20694;-50
2022/07/28 01:47:31;;;;;;;3.17;2.20;;;17.60;68.00;;;;;;5042867;28;20513;-49
2022/07/28 01:50:03;;;;;;;5.40;2.20;;;17.60;67.20;;;;;;5049464;28;20490;-49
2022/07/28 01:52:31;;;;;;;5.13;3.10;;;17.60;67.20;;;;;;5020639;28;20486;-50
2022/07/28 01:54:59;;;;;;;4.67;1.90;;;17.60;66.60;;;;;;5048010;28;20477;-49
2022/07/28 01:57:28;;;;;;;3.80;2.70;;;17.60;66.60;;;;;;5038575;28;20546;-49
2022/07/28 01:59:56;;;;;;;10.10;2.33;;;17.60;66.50;;;;;;5038152;28;20487;-49
2022/07/28 02:02:23;;;;;;;3.17;2.90;;;17.50;66.50;;;;;;5039037;28;20832;-50
2022/07/28 02:04:53;;;;;;;2.23;1.77;;;17.50;66.60;;;;;;5039258;28;20484;-49
2022/07/28 02:07:22;;;;;;;2.60;2.37;;;17.60;67.60;;;;;;5038892;28;20492;-49
2022/07/28 02:09:50;;;;;;;2.40;1.70;;;17.50;67.10;;;;;;5045251;28;20464;-48
2022/07/28 02:12:18;;;;;;;2.30;1.80;;;17.50;67.30;;;;;;5042721;28;20541;-49
2022/07/28 02:14:48;;;;;;;6.57;2.10;;;17.50;66.40;;;;;;5042265;28;20472;-48
2022/07/28 02:17:20;;;;;;;5.37;2.70;;;17.50;66.60;;;;;;5040840;28;20499;-49
2022/07/28 02:19:48;;;;;;;6.00;1.80;;;17.50;68.00;;;;;;5044138;28;20482;-48
2022/07/28 02:22:17;;;;;;;3.50;2.73;;;17.50;66.70;;;;;;5041940;28;20479;-49
2022/07/28 02:24:45;;;;;;;5.37;2.13;;;17.50;66.50;;;;;;5045809;28;20529;-48
2022/07/28 02:27:19;;;;;;;3.40;1.90;;;17.50;67.20;;;;;;5041268;28;20487;-49
2022/07/28 02:29:50;;;;;;;2.63;1.90;;;17.50;67.50;;;;;;5045603;28;20476;-48
2022/07/28 02:32:20;;;;;;;5.43;2.60;;;17.50;66.80;;;;;;5040636;28;20525;-48
2022/07/28 02:34:49;;;;;;;2.30;1.70;;;17.50;66.80;;;;;;5036549;28;20488;-49
2022/07/28 02:37:19;;;;;;;2.97;2.17;;;17.60;66.90;;;;;;5041699;28;21068;-49
2022/07/28 02:39:49;;;;;;;2.90;1.67;;;17.60;66.80;;;;;;5040120;28;20474;-49
2022/07/28 02:42:19;;;;;;;4.10;2.30;;;17.50;66.70;;;;;;5043849;28;20597;-49
2022/07/28 02:44:55;;;;;;;7.17;1.70;;;17.60;66.80;;;;;;5041665;28;20529;-49
2022/07/28 02:47:26;;;;;;;10.50;2.50;;;17.60;67.30;;;;;;5040894;28;20467;-49
2022/07/28 02:49:54;;;;;;;1.80;1.30;;;17.70;66.90;;;;;;5043550;28;20877;-49
2022/07/28 02:52:25;;;;;;;3.57;2.50;;;17.60;67.40;;;;;;5041838;28;20464;-49
2022/07/28 02:54:52;;;;;;;2.20;1.70;;;17.60;66.70;;;;;;5031843;28;20510;-49
2022/07/28 02:57:21;;;;;;;3.30;1.97;;;17.60;66.70;;;;;;5048985;28;20532;-50
2022/07/28 02:59:49;;;;;;;3.73;1.83;;;17.60;67.40;;;;;;5045634;28;20475;-50
2022/07/28 03:02:19;;;;;;;2.60;2.40;;;17.50;67.20;;;;;;5037600;28;20882;-49
2022/07/28 03:05:00;;;;;;;3.80;2.67;;;17.50;67.40;;;;;;5040171;28;21027;-49
2022/07/28 03:07:29;;;;;;;5.03;2.63;;;17.50;67.20;;;;;;5029552;28;20484;-49
2022/07/28 03:09:56;;;;;;;4.10;1.60;;;17.50;67.20;;;;;;5031474;28;21004;-49
2022/07/28 03:12:23;;;;;;;3.00;2.80;;;17.50;67.20;;;;;;5041748;28;20529;-49
2022/07/28 03:14:50;;;;;;;2.50;1.83;;;17.40;67.10;;;;;;5024930;28;20857;-48
2022/07/28 03:17:18;;;;;;;2.53;1.73;;;17.40;67.90;;;;;;5043798;28;20517;-48
2022/07/28 03:19:45;;;;;;;4.23;2.30;;;17.40;67.20;;;;;;5047226;28;20487;-48
2022/07/28 03:22:11;;;;;;;2.43;1.70;;;17.30;67.80;;;;;;5041940;28;21198;-49
2022/07/28 03:24:43;;;;;;;5.90;1.60;;;17.40;67.40;;;;;;5040197;28;20517;-48
2022/07/28 03:27:16;;;;;;;5.20;1.80;;;17.40;67.40;;;;;;5043643;28;20977;-49
2022/07/28 03:29:44;;;;;;;3.97;2.23;;;;;;;;;;5045621;28;21168;-49
2022/07/28 03:32:12;;;;;;;2.20;2.00;;;17.30;67.50;;;;;;5041300;28;20488;-49
2022/07/28 03:34:39;;;;;;;3.97;2.57;;;17.20;67.50;;;;;;5042488;28;20487;-49
2022/07/28 03:37:11;;;;;;;6.60;2.30;;;17.20;68.10;;;;;;5048816;28;20486;-49
2022/07/28 03:39:44;;;;;;;2.40;1.87;;;17.20;67.90;;;;;;5040455;28;20514;-49
2022/07/28 03:42:12;;;;;;;2.50;2.10;;;17.20;67.70;;;;;;5042944;28;20553;-48
2022/07/28 03:44:40;;;;;;;4.47;1.73;;;17.10;67.60;;;;;;5037291;28;20985;-48
2022/07/28 03:47:07;;;;;;;3.70;2.00;;;17.10;68.10;;;;;;5041413;28;20484;-48
2022/07/28 03:49:34;;;;;;;3.80;2.00;;;17.10;67.80;;;;;;5041564;28;20480;-49
2022/07/28 03:52:00;;;;;;;3.60;1.70;;;17.10;67.70;;;;;;5043167;28;20491;-48
2022/07/28 03:54:27;;;;;;;4.13;2.67;;;17.10;68.40;;;;;;5039875;28;20475;-48
2022/07/28 03:56:55;;;;;;;2.53;1.60;;;17.10;67.70;;;;;;5041491;28;20483;-48
2022/07/28 03:59:22;;;;;;;4.23;2.37;;;17.10;67.80;;;;;;5041577;28;20479;-48
2022/07/28 04:01:49;;;;;;;2.80;1.70;;;17.10;67.90;;;;;;5041673;28;20492;-48
2022/07/28 04:04:16;;;;;;;3.00;2.03;;;17.10;68.60;;;;;;5017511;28;20487;-49
2022/07/28 04:06:42;;;;;;;5.40;2.00;;;17.10;68.10;;;;;;5041177;28;20468;-49
2022/07/28 04:09:09;;;;;;;2.57;2.10;;;17.10;68.60;;;;;;5042062;28;20480;-49
2022/07/28 04:11:36;;;;;;;2.53;1.83;;;17.10;68.00;;;;;;5042129;28;21423;-48
2022/07/28 04:14:04;;;;;;;10.67;1.70;;;17.20;67.90;;;;;;5040764;28;21058;-49
2022/07/28 04:16:30;;;;;;;3.60;2.50;;;17.20;67.90;;;;;;5040562;28;20953;-48
2022/07/28 04:18:57;;;;;;;3.93;1.93;;;17.20;67.60;;;;;;5042211;28;20479;-48
2022/07/28 04:21:24;;;;;;;2.33;1.77;;;17.20;68.30;;;;;;5039328;28;22619;-48
2022/07/28 04:23:51;;;;;;;4.93;2.13;;;17.20;68.50;;;;;;5039483;28;20488;-48
2022/07/28 04:26:18;;;;;;;3.50;2.23;;;17.20;67.70;;;;;;5040595;28;20545;-48
2022/07/28 04:28:46;;;;;;;4.00;1.80;;;17.30;67.90;;;;;;5041655;28;20476;-48
2022/07/28 04:31:14;;;;;;;4.00;2.33;;;17.30;67.40;;;;;;5043596;28;20542;-49
2022/07/28 04:33:42;;;;;;;7.20;1.90;;;17.30;67.40;;;;;;5040532;28;20495;-49
2022/07/28 04:36:08;;;;;;;4.57;1.97;;;17.30;67.90;;;;;;5041468;28;20510;-49
2022/07/28 04:38:36;;;;;;;2.57;1.60;;;17.30;67.80;;;;;;5040257;28;20476;-48
2022/07/28 04:41:03;;;;;;;2.80;1.57;;;17.30;68.00;;;;;;5041582;28;20960;-48
2022/07/28 04:43:30;;;;;;;8.27;2.83;;;17.30;67.80;;;;;;5037731;28;20491;-48
2022/07/28 04:45:56;;;;;;;4.03;1.60;;;17.40;69.00;;;;;;5041190;28;20559;-49
2022/07/28 04:48:24;;;;;;;3.53;2.40;;;17.40;68.60;;;;;;5040588;28;20545;-49
2022/07/28 04:50:52;;;;;;;2.30;1.50;;;17.40;68.30;;;;;;5041990;28;20494;-48
2022/07/28 04:53:19;;;;;;;2.50;2.30;;;17.40;68.30;;;;;;5040119;28;20484;-49
2022/07/28 04:55:45;;;;;;;6.60;2.60;;;17.40;67.70;;;;;;5040184;28;20555;-48
2022/07/28 04:58:12;;;;;;;5.10;1.67;;;17.40;67.90;;;;;;5039188;28;20503;-49
2022/07/28 05:00:39;;;;;;;5.60;2.27;;;17.30;67.80;;;;;;5036886;28;20953;-49
2022/07/28 05:03:06;;;;;;;3.87;1.43;;;17.30;68.60;;;;;;5041574;28;21060;-49
2022/07/28 05:05:34;;;;;;;3.17;1.80;;;17.30;68.00;;;;;;5038417;28;20987;-48
2022/07/28 05:08:00;;;;;;;3.27;1.70;;;17.50;68.00;;;;;;5039021;28;20499;-48
2022/07/28 05:10:27;;;;;;;3.83;2.40;;;17.50;67.90;;;;;;5037607;28;20958;-49
2022/07/28 05:12:54;;;;;;;5.33;2.27;;;17.50;67.90;;;;;;5034747;28;20556;-48
2022/07/28 05:15:20;;;;;;;3.70;2.23;;;17.50;68.10;;;;;;5043410;28;20917;-48
2022/07/28 05:17:47;;;;;;;2.40;1.90;;;17.50;68.70;;;;;;5039749;28;21348;-48
2022/07/28 05:20:14;;;;;;;3.17;1.97;;;17.50;68.30;;;;;;5038940;28;20487;-48
2022/07/28 05:22:44;;;;;;;1.97;1.63;;;17.50;67.70;;;;;;5039279;28;20476;-49
2022/07/28 05:25:14;;;;;;;2.43;1.73;;;;;;;;;;5038917;28;20488;-49
2022/07/28 05:27:41;;;;;;;6.00;2.40;;;17.60;67.60;;;;;;5039138;28;20487;-49
2022/07/28 05:30:09;;;;;;;3.83;2.10;;;17.60;68.20;;;;;;5039839;28;20487;-48
2022/07/28 05:32:36;;;;;;;3.63;2.00;;;17.70;67.80;;;;;;5028556;28;20467;-48
2022/07/28 05:35:03;;;;;;;4.07;1.97;;;17.70;67.80;;;;;;5043831;28;20483;-49
2022/07/28 05:37:33;;;;;;;3.97;2.23;;;17.70;68.80;;;;;;5040435;28;20977;-48
2022/07/28 05:40:01;;;;;;;10.17;2.33;;;17.90;67.90;;;;;;5040249;28;20595;-49
2022/07/28 05:42:34;;;;;;;2.77;2.33;;;17.80;68.40;;;;;;5036626;28;20976;-48
2022/07/28 05:45:02;;;;;;;3.53;1.50;;;17.90;67.70;;;;;;5051274;28;21000;-48
2022/07/28 05:47:28;;;;;;;3.27;2.10;;;18.00;67.50;;;;;;5043499;28;20518;-48
2022/07/28 05:49:59;;;;;;;3.73;1.80;;;18.10;68.10;;;;;;5043082;28;20581;-49
2022/07/28 05:52:27;;;;;;;3.67;2.60;;;18.10;67.60;;;;;;5043244;28;20487;-49
2022/07/28 05:54:54;;;;;;;2.47;1.47;;;18.20;68.10;;;;;;5047632;28;20479;-49
2022/07/28 05:57:23;;;;;;;2.60;1.70;;;18.30;67.50;;;;;;5046166;28;20537;-49
2022/07/28 05:59:49;;;;;;;2.00;1.60;;;18.30;67.90;;;;;;5034666;28;20533;-49
2022/07/28 06:02:16;;;;;;;7.13;2.30;;;18.40;67.10;;;;;;5055070;28;20905;-48
2022/07/28 06:04:43;;;;;;;2.10;1.40;;;18.40;67.50;;;;;;5041766;28;20890;-48
2022/07/28 06:07:09;;;;;;;5.73;1.57;;;18.40;66.50;;;;;;5042465;28;20506;-49
2022/07/28 06:09:36;;;;;;;10.37;2.13;;;18.50;67.10;;;;;;5039844;28;20478;-49
2022/07/28 06:12:03;;;;;;;2.30;1.37;;;18.50;67.00;;;;;;5042956;28;20468;-48
2022/07/28 06:14:31;;;;;;;2.20;1.90;;;18.50;67.70;;;;;;5039230;28;20570;-48
2022/07/28 06:16:58;;;;;;;2.13;1.40;;;18.60;67.00;;;;;;5037549;28;20490;-48
2022/07/28 06:19:24;;;;;;;3.97;2.77;;;18.70;66.80;;;;;;5041601;28;20959;-49
2022/07/28 06:21:51;;;;;;;2.50;1.77;;;18.80;66.90;;;;;;5042909;28;20909;-48
2022/07/28 06:24:18;;;;;;;7.83;1.87;;;18.80;66.70;;;;;;5038123;28;21002;-50
2022/07/28 06:26:45;;;;;;;5.43;2.20;;;18.90;66.80;;;;;;5042322;28;20526;-49
2022/07/28 06:29:11;;;;;;;2.53;1.60;;;19.10;66.90;;;;;;5046807;28;20544;-48
2022/07/28 06:31:39;;;;;;;10.93;1.87;;;19.20;66.60;;;;;;5042580;28;20486;-48
2022/07/28 06:34:06;;;;;;;2.97;1.67;;;19.20;67.80;;;;;;5038485;28;20538;-48
2022/07/28 06:36:33;;;;;;;4.07;1.43;;;19.50;66.80;;;;;;5037515;28;20779;-48
2022/07/28 06:39:00;;;;;;;6.97;1.60;;;19.80;66.30;;;;;;5052368;28;20482;-48
2022/07/28 06:41:27;;;;;;;2.63;2.07;;;19.80;66.70;;;;;;5036743;28;20503;-49
2022/07/28 06:43:54;;;;;;;4.50;1.50;;;20.00;65.90;;;;;;5026935;28;20479;-48
2022/07/28 06:46:21;;;;;;;6.73;2.03;;;20.10;65.00;;;;;;5030574;28;20478;-49
2022/07/28 06:48:49;;;;;;;3.53;2.10;;;20.20;65.40;;;;;;5043027;28;20479;-49
2022/07/28 06:51:17;;;;;;;4.97;2.10;;;20.40;64.80;;;;;;5049358;28;20481;-49
2022/07/28 06:53:44;;;;;;;3.87;2.10;;;20.50;65.00;;;;;;5047041;28;20556;-49
2022/07/28 06:56:11;;;;;;;3.30;2.30;;;20.70;66.00;;;;;;5042173;28;20516;-49
2022/07/28 06:58:38;;;;;;;2.90;1.70;;;21.00;64.80;;;;;;5040828;28;20880;-49
2022/07/28 07:01:06;;;;;;;4.23;1.60;;;21.10;65.30;;;;;;5042533;28;20678;-49
2022/07/28 07:03:33;;;;;;;4.93;2.43;;;21.30;64.60;;;;;;5041367;28;20557;-49
2022/07/28 07:06:01;;;;;;;2.83;1.80;;;21.30;64.10;;;;;;5048838;28;20548;-49
2022/07/28 07:08:27;;;;;;;4.27;1.80;;;21.40;63.50;;;;;;5049228;28;20901;-50
2022/07/28 07:10:54;;;;;;;4.13;1.47;;;21.50;63.80;;;;;;5050154;28;21373;-49
2022/07/28 07:13:21;;;;;;;2.13;1.73;;;21.60;64.30;;;;;;5046473;28;20536;-49
2022/07/28 07:15:47;;;;;;;2.87;1.67;;;21.60;62.60;;;;;;5043020;28;20478;-49
2022/07/28 07:18:14;;;;;;;3.70;1.70;;;21.70;63.00;;;;;;5041378;28;21058;-50
2022/07/28 07:20:41;;;;;;;2.33;1.57;;;21.80;64.30;;;;;;5047775;28;20497;-48
2022/07/28 07:23:09;;;;;;;3.20;1.60;;;22.00;63.90;;;;;;5075734;28;20493;-49
2022/07/28 07:25:36;;;;;;;4.43;1.83;;;22.20;63.00;;;;;;5039351;28;20821;-49
2022/07/28 07:28:02;;;;;;;4.37;2.10;;;22.40;63.30;;;;;;5052043;28;20474;-49
2022/07/28 07:30:29;;;;;;;4.50;1.90;;;22.60;62.50;;;;;;5050732;28;20907;-49
2022/07/28 07:32:56;;;;;;;2.57;1.40;;;22.60;61.80;;;;;;5051454;28;20477;-50
2022/07/28 07:35:22;;;;;;;4.67;2.40;;;22.50;61.50;;;;;;5045207;28;21046;-49
2022/07/28 07:37:49;;;;;;;5.40;1.53;;;22.50;61.90;;;;;;5051869;28;21156;-48
2022/07/28 07:40:18;;;;;;;6.80;2.20;;;22.40;62.00;;;;;;5047064;28;20486;-48
2022/07/28 07:42:44;;;;;;;2.37;1.53;;;22.40;62.50;;;;;;5072633;28;20471;-49
2022/07/28 07:45:11;;;;;;;3.50;1.97;;;22.30;63.10;;;;;;5044422;28;20552;-48
2022/07/28 07:47:38;;;;;;;4.00;1.87;;;22.40;63.40;;;;;;5051133;28;20485;-50
2022/07/28 07:50:05;;;;;;;2.57;1.40;;;22.40;63.50;;;;;;5049478;28;20484;-48
2022/07/28 07:52:32;;;;;;;9.10;1.80;;;22.80;62.80;;;;;;5050145;28;20474;-49
2022/07/28 07:54:59;;;;;;;5.00;2.00;;;23.20;63.40;;;;;;5045438;28;20475;-49
2022/07/28 07:57:28;;;;;;;6.43;2.20;;;23.30;64.20;;;;;;5046239;28;20486;-49
2022/07/28 07:59:55;;;;;;;2.20;1.70;;;23.60;62.70;;;;;;5049112;28;20474;-48
2022/07/28 08:02:21;;;;;;;9.10;2.10;;;24.00;61.80;;;;;;5048238;28;20490;-49
2022/07/28 08:04:48;;;;;;;2.43;2.13;;;24.30;61.00;;;;;;5048091;28;20539;-49
2022/07/28 08:07:15;;;;;;;6.00;2.70;;;24.70;61.10;;;;;;5049967;28;20491;-50
2022/07/28 08:09:42;;;;;;;3.23;2.10;;;24.70;60.60;;;;;;5051736;28;20482;-50
2022/07/28 08:12:09;;;;;;;2.70;2.13;;;24.80;60.70;;;;;;5049020;28;20509;-50
2022/07/28 08:14:37;;;;;;;5.03;1.90;;;24.90;60.60;;;;;;5062632;28;20535;-49
2022/07/28 08:17:04;;;;;;;2.30;1.73;;;25.10;60.90;;;;;;5051722;28;20475;-49
2022/07/28 08:19:30;;;;;;;2.93;1.50;;;25.30;60.30;;;;;;5048894;28;20992;-50
2022/07/28 08:21:57;;;;;;;6.73;2.07;;;25.80;60.30;;;;;;5050886;28;20475;-50
2022/07/28 08:24:23;;;;;;;3.63;1.93;;;25.90;59.60;;;;;;5044714;28;20536;-51
2022/07/28 08:26:51;;;;;;;4.00;2.10;;;25.80;59.70;;;;;;5050821;28;20482;-49
2022/07/28 08:29:18;;;;;;;9.67;2.90;;;25.60;59.10;;;;;;5048555;28;20494;-50
2022/07/28 08:31:46;;;;;;;6.47;2.00;;;25.60;60.00;;;;;;5050168;28;20523;-49
2022/07/28 08:34:12;;;;;;;3.77;2.43;;;25.50;60.00;;;;;;5038835;28;20483;-50
2022/07/28 08:36:39;;;;;;;4.40;2.10;;;25.50;61.20;;;;;;5050386;28;20482;-49
2022/07/28 08:39:06;;;;;;;8.23;2.37;;;25.60;61.70;;;;;;5049915;28;20478;-49
2022/07/28 08:41:45;;;;;;;4.93;2.90;;;25.80;61.30;;;;;;5041795;28;20490;-48
2022/07/28 08:44:19;;;;;;;3.73;2.30;;;26.10;61.10;;;;;;5053446;28;20485;-48
2022/07/28 08:46:48;;;;;;;5.73;3.03;;;26.30;61.50;;;;;;5054729;28;20960;-49
2022/07/28 08:49:16;;;;;;;3.40;3.10;;;26.50;60.20;;;;;;5047324;28;20486;-49
2022/07/28 08:51:44;;;;;;;3.30;3.00;;;26.90;61.60;;;;;;5040168;28;20862;-49
2022/07/28 08:54:15;;;;;;;3.40;2.30;;;27.10;59.50;;;;;;5031134;28;20475;-50
2022/07/28 08:56:45;;;;;;;4.10;2.40;;;27.20;60.20;;;;;;5067104;28;20494;-49
2022/07/28 08:59:12;;;;;;;5.23;2.50;;;27.70;60.60;;;;;;5040934;28;20993;-49
2022/07/28 09:01:39;;;;;;;6.03;2.60;;;27.80;58.80;;;;;;5043909;28;20965;-50
2022/07/28 09:04:07;;;;;;;3.30;3.00;;;27.80;59.30;;;;;;5056447;28;20513;-50
2022/07/28 09:06:36;;;;;;;4.33;3.43;;;28.20;59.00;;;;;;5059340;28;20474;-50
2022/07/28 09:09:04;;;;;;;7.33;2.50;;;28.30;60.30;;;;;;5047944;28;20466;-50
2022/07/28 09:11:30;;;;;;;11.23;3.30;;;28.40;58.10;;;;;;5047492;28;20578;-51
2022/07/28 09:13:57;;;;;;;3.23;2.93;;;28.40;58.10;;;;;;5046581;28;20482;-50
2022/07/28 09:16:24;;;;;;;22.13;3.90;;;28.40;58.40;;;;;;5043980;28;20481;-50
2022/07/28 09:18:50;;;;;;;3.57;2.20;;;28.50;59.30;;;;;;5050866;28;20567;-50
2022/07/28 09:21:20;;;;;;;13.13;2.60;;;28.60;59.20;;;;;;5045051;28;20453;-51
2022/07/28 09:23:48;;;;;;;4.20;2.40;;;28.70;58.50;;;;;;5046575;28;20583;-51
2022/07/28 09:26:17;;;;;;;3.87;2.40;;;28.90;57.80;;;;;;5041416;28;20491;-50
2022/07/28 09:28:49;;;;;;;3.57;2.63;;;29.00;58.00;;;;;;5047815;28;20782;-51
2022/07/28 09:31:17;;;;;;;6.00;2.97;;;29.20;57.60;;;;;;5048927;28;20467;-51
2022/07/28 09:33:54;;;;;;;2.93;2.50;;;29.30;57.40;;;;;;5045396;28;20478;-51
2022/07/28 09:36:22;;;;;;;4.20;2.67;;;29.40;57.80;;;;;;5044844;28;20478;-50
2022/07/28 09:38:49;;;;;;;4.73;2.50;;;29.50;57.70;;;;;;5047115;28;20486;-50
2022/07/28 09:41:17;;;;;;;3.73;2.40;;;29.70;57.60;;;;;;5047779;28;20487;-51
2022/07/28 09:43:45;;;;;;;3.90;2.83;;;29.90;57.80;;;;;;5046211;28;20928;-50
2022/07/28 09:46:13;;;;;;;5.13;3.70;;;30.00;57.00;;;;;;5046819;28;20474;-50
2022/07/28 09:48:55;;;;;;;4.80;3.70;;;30.10;56.80;;;;;;5043965;28;20859;-51
2022/07/28 09:51:24;;;;;;;6.77;3.60;;;30.20;57.60;;;;;;5045585;28;20470;-51
2022/07/28 09:53:52;;;;;;;6.00;2.93;;;30.20;57.90;;;;;;5040407;28;20479;-51
2022/07/28 09:56:19;;;;;;;3.87;3.57;;;30.40;58.30;;;;;;5046394;28;20478;-52
2022/07/28 09:58:58;;;;;;;5.00;4.50;;;30.50;57.80;;;;;;5048087;28;20479;-50
2022/07/28 10:01:25;;;;;;;5.20;4.70;;;30.30;56.20;;;;;;5046574;28;20490;-58
2022/07/28 10:03:56;;;;;;;13.83;5.53;;;30.40;56.70;;;;;;5046425;28;20556;-50
2022/07/28 10:06:29;;;;;;;5.90;5.23;;;30.30;57.10;;;;;;5046541;28;20845;-50
2022/07/28 10:08:56;;;;;;;10.60;4.70;;;30.00;57.20;;;;;;5048134;28;20841;-50
2022/07/28 10:11:26;;;;;;;5.30;4.80;;;30.00;56.90;;;;;;5049361;28;20490;-52
2022/07/28 10:14:01;;;;;;;5.10;4.70;;;;;;;;;;5034815;28;20461;-49
2022/07/28 10:16:29;;;;;;;4.20;3.23;;;30.30;57.20;;;;;;5048543;28;20558;-50
2022/07/28 10:18:59;;;;;;;7.23;4.17;;;30.10;56.40;;;;;;5046347;28;20482;-51
2022/07/28 10:21:28;;;;;;;5.90;5.30;;;29.90;57.40;;;;;;5042678;28;20493;-56
2022/07/28 10:23:58;;;;;;;5.90;5.37;;;30.10;56.80;;;;;;5039387;28;20502;-50
2022/07/28 10:26:30;;;;;;;5.13;4.73;;;30.10;57.50;;;;;;5040579;28;20478;-50
2022/07/28 10:28:59;;;;;;;8.63;5.23;;;29.80;57.00;;;;;;5048477;28;20482;-51
2022/07/28 10:31:34;;;;;;;6.60;5.10;;;29.90;57.30;;;;;;5050904;28;20491;-50
2022/07/28 10:34:03;;;;;;;9.90;4.50;;;29.60;56.20;;;;;;5049031;28;20877;-51
2022/07/28 10:36:32;;;;;;;8.03;5.83;;;29.30;56.50;;;;;;5050023;28;20943;-51
2022/07/28 10:39:13;;;;;;;5.47;4.97;;;29.50;58.00;;;;;;5052700;28;20479;-51
2022/07/28 10:41:42;;;;;;;8.03;5.00;;;29.50;58.60;;;;;;5047869;28;20445;-53
2022/07/28 10:44:12;;;;;;;5.13;4.10;;;30.10;58.10;;;;;;5047645;28;20952;-51
2022/07/28 10:46:40;;;;;;;8.80;4.77;;;29.90;57.20;;;;;;5049240;28;22586;-51
2022/07/28 10:49:08;;;;;;;6.00;5.43;;;29.70;57.30;;;;;;5053337;28;20469;-51
2022/07/28 10:51:36;;;;;;;5.63;5.13;;;29.80;57.40;;;;;;5066030;28;20909;-51
2022/07/28 10:54:13;;;;;;;6.40;5.60;;;29.60;57.40;;;;;;5047004;28;20482;-51
2022/07/28 10:56:52;;;;;;;8.10;6.03;;;29.50;57.70;;;;;;5047952;28;20603;-50
2022/07/28 10:59:38;;;;;;;7.80;5.37;;;29.70;58.40;;;;;;5037986;28;20528;-53
2022/07/28 11:02:05;;;;;;;5.67;5.20;;;29.50;57.70;;;;;;5041859;28;20475;-51
2022/07/28 11:04:54;;;;;;;6.00;5.30;;;29.70;57.90;;;;;;5038591;28;20537;-51
2022/07/28 11:07:22;;;;;;;7.43;5.90;;;29.70;58.50;;;;;;5044547;28;20611;-52
2022/07/28 11:09:49;;;;;;;7.10;6.40;;;29.60;56.60;;;;;;5068663;28;20562;-51
2022/07/28 11:12:16;;;;;;;5.60;5.07;;;29.60;57.50;;;;;;5049661;28;20482;-51
2022/07/28 11:14:43;;;;;;;4.97;4.57;;;29.50;58.00;;;;;;5045497;28;20478;-51
2022/07/28 11:17:15;;;;;;;9.50;5.27;;;30.00;57.80;;;;;;5049848;28;20491;-51
2022/07/28 11:19:57;;;;;;;6.83;5.80;;;29.80;56.60;;;;;;5051373;28;20893;-51
2022/07/28 11:22:29;;;;;;;4.13;3.73;;;29.50;56.80;;;;;;5043654;28;20614;-51
2022/07/28 11:25:13;;;;;;;6.87;5.33;;;29.10;57.70;;;;;;5047246;28;20488;-51
2022/07/28 11:28:00;;;;;;;5.77;5.23;;;28.50;58.00;;;;;;5050967;28;20520;-50
2022/07/28 11:30:54;;;;;;;6.97;6.27;;;28.70;58.80;;;;;;5048724;28;20483;-51
2022/07/28 11:33:23;;;;;;;7.40;6.67;;;28.50;58.30;;;;;;5038047;28;20848;-51
2022/07/28 11:35:55;;;;;;;8.30;7.27;;;28.60;58.50;;;;;;5047906;28;20593;-51
2022/07/28 11:38:23;;;;;;;6.90;6.23;;;28.30;59.40;;;;;;5048365;28;20532;-51
2022/07/28 11:40:51;;;;;;;6.20;5.20;;;28.40;61.20;;;;;;5048428;28;20479;-52
2022/07/28 11:43:35;;;;;;;6.40;5.67;;;28.30;59.50;;;;;;5047691;28;20945;-52
2022/07/28 11:46:35;;;;;;;7.17;5.20;;;28.30;59.60;;;;;;5047011;28;20474;-51
2022/07/28 11:49:20;;;;;;;5.60;4.70;;;28.60;59.80;;;;;;5046637;28;20539;-50
2022/07/28 11:52:19;;;;;;;5.97;5.47;;;28.60;59.50;;;;;;5040700;28;20656;-51
2022/07/28 11:54:53;;;;;;;5.93;5.20;;;28.50;59.10;;;;;;4978433;28;20485;-50
2022/07/28 11:57:23;;;;;;;5.63;5.07;;;28.60;59.80;;;;;;5037780;28;20561;-51
2022/07/28 11:59:58;;;;;;;6.10;5.50;;;28.60;60.60;;;;;;5048965;28;20524;-51
2022/07/28 12:02:29;;;;;;;9.13;5.07;;;28.60;59.30;;;;;;5065061;28;21155;-52
2022/07/28 12:05:08;;;;;;;5.87;5.27;;;28.60;60.10;;;;;;5048418;28;20453;-51
2022/07/28 12:07:38;;;;;;;8.27;4.70;;;28.80;59.60;;;;;;5048679;28;20466;-51
2022/07/28 12:10:32;;;;;;;5.80;5.13;;;28.80;60.00;;;;;;5046139;28;20486;-50
2022/07/28 12:13:00;;;;;;;6.33;5.30;;;28.90;58.40;;;;;;5028946;28;21040;-51
2022/07/28 12:15:28;;;;;;;5.50;5.00;;;28.60;59.40;;;;;;5043760;28;20486;-50
2022/07/28 12:17:55;;;;;;;6.47;4.83;;;28.60;59.10;;;;;;5051374;28;20904;-51
2022/07/28 12:20:22;;;;;;;5.97;5.30;;;28.70;60.20;;;;;;5049754;28;20486;-50
2022/07/28 12:22:56;;;;;;;14.37;5.60;;;28.70;60.00;;;;;;5049908;28;20490;-52
2022/07/28 12:25:22;;;;;;;7.20;5.43;;;28.70;60.20;;;;;;5041442;28;20491;-52
2022/07/28 12:27:51;;;;;;;5.10;4.60;;;28.80;59.50;;;;;;5048736;28;20487;-52
2022/07/28 12:30:25;;;;;;;4.80;4.40;;;28.80;59.40;;;;;;5047845;28;20474;-51
2022/07/28 12:32:53;;;;;;;4.40;4.00;;;28.90;59.40;;;;;;5034367;28;21002;-52
2022/07/28 12:35:21;;;;;;;5.33;4.87;;;28.90;59.30;;;;;;5036804;28;20487;-52
2022/07/28 12:37:49;;;;;;;4.67;4.27;;;28.80;58.40;;;;;;5046287;28;20506;-51
2022/07/28 12:40:17;;;;;;;7.80;5.00;;;28.90;60.10;;;;;;5043730;28;20591;-52
2022/07/28 12:42:44;;;;;;;7.63;5.40;;;28.70;58.60;;;;;;5048683;28;20500;-51
2022/07/28 12:45:13;;;;;;;7.10;5.63;;;28.70;59.30;;;;;;5044849;28;21013;-51
2022/07/28 12:47:40;;;;;;;5.97;5.33;;;28.50;59.40;;;;;;5046430;28;20483;-51
2022/07/28 12:50:15;;;;;;;5.40;4.90;;;28.60;60.10;;;;;;5047451;28;20487;-50
2022/07/28 12:52:44;;;;;;;4.87;4.47;;;28.60;60.40;;;;;;5043129;28;20532;-50
2022/07/28 12:55:22;;;;;;;7.43;4.23;;;28.40;60.60;;;;;;5042469;28;20497;-51
2022/07/28 12:57:50;;;;;;;5.53;5.00;;;28.50;60.70;;;;;;5047146;28;20896;-51